createdAt,value
2016-07-28T00:00:29.743Z,1008.3
2016-07-28T00:01:29.734Z,1008.29
2016-07-28T00:02:29.726Z,1008.3
2016-07-28T00:03:29.718Z,1008.3
2016-07-28T00:04:29.709Z,1008.28
2016-07-28T00:05:29.701Z,1008.29
2016-07-28T00:06:29.692Z,1008.3
2016-07-28T00:07:29.684Z,1008.3
2016-07-28T00:08:29.677Z,1008.36
2016-07-28T00:09:29.669Z,1008.33
2016-07-28T00:10:29.661Z,1008.33
2016-07-28T00:11:29.651Z,1008.33
2016-07-28T00:12:29.643Z,1008.35
2016-07-28T00:13:29.635Z,1008.34
2016-07-28T00:14:29.627Z,1008.34
2016-07-28T00:15:29.619Z,1008.33
2016-07-28T00:16:29.609Z,1008.31
2016-07-28T00:17:29.602Z,1008.27
2016-07-28T00:18:29.594Z,1008.29
2016-07-28T00:19:29.585Z,1008.27
2016-07-28T00:20:29.577Z,1008.29
2016-07-28T00:21:29.569Z,1008.27
2016-07-28T00:22:29.560Z,1008.24
2016-07-28T00:23:29.552Z,1008.22
2016-07-28T00:24:29.543Z,1008.25
2016-07-28T00:25:29.536Z,1008.23
2016-07-28T00:27:29.519Z,1008.26
2016-07-28T00:28:29.511Z,1008.2
2016-07-28T00:29:29.505Z,1008.2
2016-07-28T00:30:29.494Z,1008.17
2016-07-28T00:31:29.487Z,1008.16
2016-07-28T00:32:29.482Z,1008.15
2016-07-28T00:33:29.471Z,1008.18
2016-07-28T00:34:29.462Z,1008.17
2016-07-28T00:35:29.456Z,1008.22
2016-07-28T00:36:29.447Z,1008.26
2016-07-28T00:37:29.437Z,1008.3
2016-07-28T00:38:29.429Z,1008.3
2016-07-28T00:39:29.421Z,1008.26
2016-07-28T00:40:29.412Z,1008.29
2016-07-28T00:42:29.396Z,1008.27
2016-07-28T00:43:29.388Z,1008.27
2016-07-28T00:44:29.379Z,1008.24
2016-07-28T00:45:29.371Z,1008.27
2016-07-28T00:46:29.363Z,1008.25
2016-07-28T00:47:29.558Z,1008.25
2016-07-28T00:48:29.346Z,1008.24
2016-07-28T00:49:29.338Z,1008.23
2016-07-28T00:50:29.330Z,1008.28
2016-07-28T00:51:29.322Z,1008.24
2016-07-28T00:52:29.314Z,1008.24
2016-07-28T00:53:29.305Z,1008.19
2016-07-28T00:54:29.297Z,1008.22
2016-07-28T00:55:29.289Z,1008.24
2016-07-28T00:57:29.273Z,1008.22
2016-07-28T00:58:29.264Z,1008.19
2016-07-28T00:59:29.254Z,1008.2
2016-07-28T01:00:29.248Z,1008.2
2016-07-28T01:01:29.242Z,1008.18
2016-07-28T01:02:29.232Z,1008.19
2016-07-28T01:03:29.223Z,1008.15
2016-07-28T01:04:29.214Z,1008.18
2016-07-28T01:05:29.206Z,1008.16
2016-07-28T01:06:29.197Z,1008.22
2016-07-28T01:07:29.190Z,1008.17
2016-07-28T01:08:29.181Z,1008.15
2016-07-28T01:09:29.174Z,1008.14
2016-07-28T01:10:29.164Z,1008.14
2016-07-28T01:12:29.149Z,1008.16
2016-07-28T01:13:29.140Z,1008.15
2016-07-28T01:14:29.133Z,1008.15
2016-07-28T01:15:29.122Z,1008.17
2016-07-28T01:16:29.117Z,1008.22
2016-07-28T01:17:29.109Z,1008.19
2016-07-28T01:18:29.098Z,1008.17
2016-07-28T01:19:29.091Z,1008.12
2016-07-28T01:20:29.084Z,1008.12
2016-07-28T01:21:29.074Z,1008.14
2016-07-28T01:22:29.069Z,1008.11
2016-07-28T01:23:29.057Z,1008.12
2016-07-28T01:24:29.050Z,1008.14
2016-07-28T01:25:29.042Z,1008.11
2016-07-28T01:27:29.025Z,1008.15
2016-07-28T01:28:29.016Z,1008.16
2016-07-28T01:29:29.007Z,1008.12
2016-07-28T01:30:29.001Z,1008.14
2016-07-28T01:31:28.992Z,1008.12
2016-07-28T01:32:28.983Z,1008.12
2016-07-28T01:33:28.975Z,1008.13
2016-07-28T01:34:28.966Z,1008.17
2016-07-28T01:35:28.958Z,1008.14
2016-07-28T01:36:28.949Z,1008.15
2016-07-28T01:37:28.941Z,1008.12
2016-07-28T01:38:28.934Z,1008.11
2016-07-28T01:39:28.926Z,1008.12
2016-07-28T01:40:28.917Z,1008.11
2016-07-28T01:42:28.902Z,1008.11
2016-07-28T01:43:28.894Z,1008.13
2016-07-28T01:44:28.884Z,1008.09
2016-07-28T01:45:28.875Z,1008.08
2016-07-28T01:46:28.872Z,1008.07
2016-07-28T01:47:28.858Z,1008.07
2016-07-28T01:48:28.850Z,1008.1
2016-07-28T01:49:28.843Z,1008.09
2016-07-28T01:50:28.837Z,1008.1
2016-07-28T01:51:28.828Z,1008.1
2016-07-28T01:52:28.817Z,1008.08
2016-07-28T01:53:28.809Z,1008.08
2016-07-28T01:54:28.802Z,1008.08
2016-07-28T01:55:28.791Z,1008.06
2016-07-28T01:57:28.778Z,1008.03
2016-07-28T01:58:28.767Z,1008.04
2016-07-28T01:59:28.761Z,1008.06
2016-07-28T02:00:28.753Z,1008.03
2016-07-28T02:01:28.743Z,1008.02
2016-07-28T02:02:28.735Z,1008.04
2016-07-28T02:03:28.732Z,1008.02
2016-07-28T02:04:28.720Z,1008.03
2016-07-28T02:05:28.712Z,1008.06
2016-07-28T02:06:28.703Z,1008.05
2016-07-28T02:07:28.696Z,1008.04
2016-07-28T02:08:28.691Z,1008.02
2016-07-28T02:09:28.678Z,1008.03
2016-07-28T02:10:28.671Z,1008.02
2016-07-28T02:11:28.663Z,1007.98
2016-07-28T02:12:28.654Z,1007.98
2016-07-28T02:13:28.645Z,1008
2016-07-28T02:14:28.637Z,1007.94
2016-07-28T02:15:28.630Z,1007.97
2016-07-28T02:16:28.624Z,1007.99
2016-07-28T02:17:28.613Z,1007.96
2016-07-28T02:18:28.606Z,1007.92
2016-07-28T02:19:28.597Z,1007.98
2016-07-28T02:20:28.589Z,1007.96
2016-07-28T02:21:28.579Z,1007.94
2016-07-28T02:22:28.571Z,1007.97
2016-07-28T02:23:28.565Z,1007.94
2016-07-28T02:24:28.555Z,1007.94
2016-07-28T02:25:28.547Z,1007.94
2016-07-28T02:26:28.539Z,1007.91
2016-07-28T02:27:28.529Z,1007.9
2016-07-28T02:28:28.522Z,1007.9
2016-07-28T02:29:28.515Z,1007.86
2016-07-28T02:30:28.505Z,1007.9
2016-07-28T02:31:28.497Z,1007.9
2016-07-28T02:32:28.490Z,1007.89
2016-07-28T02:33:28.479Z,1007.91
2016-07-28T02:34:28.471Z,1007.93
2016-07-28T02:35:28.463Z,1007.9
2016-07-28T02:36:28.455Z,1007.88
2016-07-28T02:37:28.446Z,1007.89
2016-07-28T02:38:28.441Z,1007.88
2016-07-28T02:39:28.430Z,1007.92
2016-07-28T02:40:28.422Z,1007.87
2016-07-28T02:41:28.414Z,1007.86
2016-07-28T02:42:28.405Z,1007.88
2016-07-28T02:43:28.397Z,1007.85
2016-07-28T02:44:28.389Z,1007.87
2016-07-28T02:45:28.381Z,1007.83
2016-07-28T02:46:28.371Z,1007.83
2016-07-28T02:47:28.570Z,1007.83
2016-07-28T02:48:28.356Z,1007.82
2016-07-28T02:49:28.347Z,1007.82
2016-07-28T02:50:28.338Z,1007.84
2016-07-28T02:51:28.333Z,1007.85
2016-07-28T02:52:28.324Z,1007.8
2016-07-28T02:53:28.314Z,1007.81
2016-07-28T02:54:28.306Z,1007.81
2016-07-28T02:55:28.298Z,1007.79
2016-07-28T02:56:28.288Z,1007.81
2016-07-28T02:57:28.281Z,1007.79
2016-07-28T02:58:28.274Z,1007.82
2016-07-28T02:59:28.265Z,1007.8
2016-07-28T03:00:28.258Z,1007.8
2016-07-28T03:01:28.248Z,1007.76
2016-07-28T03:02:28.238Z,1007.75
2016-07-28T03:03:28.232Z,1007.76
2016-07-28T03:04:28.225Z,1007.75
2016-07-28T03:05:28.213Z,1007.74
2016-07-28T03:06:28.206Z,1007.74
2016-07-28T03:07:28.197Z,1007.71
2016-07-28T03:08:28.190Z,1007.73
2016-07-28T03:09:28.183Z,1007.7
2016-07-28T03:10:28.174Z,1007.69
2016-07-28T03:11:28.165Z,1007.68
2016-07-28T03:12:28.159Z,1007.66
2016-07-28T03:13:28.148Z,1007.68
2016-07-28T03:14:28.142Z,1007.62
2016-07-28T03:15:28.130Z,1007.66
2016-07-28T03:16:28.122Z,1007.65
2016-07-28T03:17:28.113Z,1007.6
2016-07-28T03:18:28.106Z,1007.62
2016-07-28T03:19:28.098Z,1007.63
2016-07-28T03:20:28.088Z,1007.62
2016-07-28T03:21:28.081Z,1007.64
2016-07-28T03:22:28.072Z,1007.66
2016-07-28T03:23:28.064Z,1007.6
2016-07-28T03:24:28.056Z,1007.62
2016-07-28T03:25:28.048Z,1007.6
2016-07-28T03:26:28.038Z,1007.61
2016-07-28T03:27:28.031Z,1007.6
2016-07-28T03:28:28.023Z,1007.63
2016-07-28T03:29:28.012Z,1007.61
2016-07-28T03:30:28.009Z,1007.62
2016-07-28T03:31:27.998Z,1007.62
2016-07-28T03:32:27.988Z,1007.62
2016-07-28T03:33:27.980Z,1007.64
2016-07-28T03:34:27.971Z,1007.61
2016-07-28T03:35:27.963Z,1007.64
2016-07-28T03:36:27.955Z,1007.63
2016-07-28T03:37:27.947Z,1007.58
2016-07-28T03:38:27.941Z,1007.54
2016-07-28T03:39:27.930Z,1007.61
2016-07-28T03:40:27.922Z,1007.57
2016-07-28T03:41:27.914Z,1007.54
2016-07-28T03:42:27.906Z,1007.53
2016-07-28T03:43:27.899Z,1007.52
2016-07-28T03:44:27.887Z,1007.51
2016-07-28T03:45:27.880Z,1007.56
2016-07-28T03:46:27.872Z,1007.55
2016-07-28T03:47:27.861Z,1007.57
2016-07-28T03:48:27.904Z,1007.58
2016-07-28T03:49:27.843Z,1007.56
2016-07-28T03:50:27.839Z,1007.54
2016-07-28T03:51:27.832Z,1007.55
2016-07-28T03:52:27.820Z,1007.52
2016-07-28T03:53:27.813Z,1007.54
2016-07-28T03:54:27.802Z,1007.54
2016-07-28T03:55:27.791Z,1007.56
2016-07-28T03:56:27.786Z,1007.58
2016-07-28T03:57:27.777Z,1007.56
2016-07-28T03:58:27.768Z,1007.56
2016-07-28T03:59:27.758Z,1007.57
2016-07-28T04:00:27.751Z,1007.55
2016-07-28T04:01:27.742Z,1007.53
2016-07-28T04:02:27.733Z,1007.57
2016-07-28T04:03:27.726Z,1007.54
2016-07-28T04:04:27.717Z,1007.57
2016-07-28T04:05:27.710Z,1007.56
2016-07-28T04:06:27.699Z,1007.53
2016-07-28T04:07:27.694Z,1007.52
2016-07-28T04:08:27.682Z,1007.51
2016-07-28T04:09:27.672Z,1007.5
2016-07-28T04:10:27.665Z,1007.5
2016-07-28T04:11:27.658Z,1007.47
2016-07-28T04:12:27.648Z,1007.47
2016-07-28T04:13:27.641Z,1007.47
2016-07-28T04:14:27.636Z,1007.47
2016-07-28T04:15:27.623Z,1007.45
2016-07-28T04:16:27.617Z,1007.49
2016-07-28T04:17:27.608Z,1007.44
2016-07-28T04:18:27.599Z,1007.46
2016-07-28T04:19:27.593Z,1007.42
2016-07-28T04:20:27.581Z,1007.42
2016-07-28T04:21:27.578Z,1007.4
2016-07-28T04:22:27.565Z,1007.39
2016-07-28T04:23:27.556Z,1007.41
2016-07-28T04:24:27.550Z,1007.39
2016-07-28T04:25:27.540Z,1007.44
2016-07-28T04:26:27.532Z,1007.38
2016-07-28T04:27:27.522Z,1007.36
2016-07-28T04:28:27.514Z,1007.36
2016-07-28T04:29:27.504Z,1007.35
2016-07-28T04:30:27.496Z,1007.35
2016-07-28T04:31:27.489Z,1007.33
2016-07-28T04:32:27.479Z,1007.34
2016-07-28T04:33:27.472Z,1007.37
2016-07-28T04:34:27.463Z,1007.36
2016-07-28T04:35:27.455Z,1007.37
2016-07-28T04:36:27.445Z,1007.38
2016-07-28T04:37:27.438Z,1007.37
2016-07-28T04:38:27.429Z,1007.37
2016-07-28T04:39:27.419Z,1007.37
2016-07-28T04:40:27.412Z,1007.4
2016-07-28T04:41:27.402Z,1007.38
2016-07-28T04:43:27.436Z,1007.37
2016-07-28T04:44:27.378Z,1007.39
2016-07-28T04:45:27.369Z,1007.34
2016-07-28T04:46:27.360Z,1007.34
2016-07-28T04:47:27.605Z,1007.33
2016-07-28T04:48:27.344Z,1007.31
2016-07-28T04:49:27.338Z,1007.28
2016-07-28T04:50:27.327Z,1007.3
2016-07-28T04:51:27.326Z,1007.25
2016-07-28T04:52:27.309Z,1007.28
2016-07-28T04:53:27.381Z,1007.32
2016-07-28T04:54:27.315Z,1007.3
2016-07-28T04:55:27.286Z,1007.26
2016-07-28T04:56:27.276Z,1007.29
2016-07-28T04:58:27.258Z,1007.32
2016-07-28T04:59:27.251Z,1007.31
2016-07-28T05:00:27.244Z,1007.32
2016-07-28T05:01:27.233Z,1007.28
2016-07-28T05:02:27.223Z,1007.32
2016-07-28T05:03:27.216Z,1007.29
2016-07-28T05:04:27.210Z,1007.33
2016-07-28T05:05:27.211Z,1007.31
2016-07-28T05:06:27.196Z,1007.33
2016-07-28T05:07:27.183Z,1007.36
2016-07-28T05:08:27.174Z,1007.36
2016-07-28T05:09:27.165Z,1007.37
2016-07-28T05:10:27.157Z,1007.39
2016-07-28T05:11:27.153Z,1007.41
2016-07-28T05:13:27.133Z,1007.4
2016-07-28T05:14:27.124Z,1007.43
2016-07-28T05:15:27.116Z,1007.4
2016-07-28T05:16:27.108Z,1007.45
2016-07-28T05:17:27.101Z,1007.44
2016-07-28T05:18:27.092Z,1007.48
2016-07-28T05:19:27.082Z,1007.48
2016-07-28T05:20:27.075Z,1007.45
2016-07-28T05:21:27.065Z,1007.48
2016-07-28T05:22:27.068Z,1007.46
2016-07-28T05:23:27.048Z,1007.43
2016-07-28T05:24:27.041Z,1007.44
2016-07-28T05:25:27.033Z,1007.45
2016-07-28T05:26:27.023Z,1007.44
2016-07-28T05:28:27.009Z,1007.44
2016-07-28T05:29:26.998Z,1007.43
2016-07-28T05:30:26.990Z,1007.45
2016-07-28T05:31:26.984Z,1007.45
2016-07-28T05:32:26.976Z,1007.4
2016-07-28T05:33:26.965Z,1007.43
2016-07-28T05:34:26.970Z,1007.46
2016-07-28T05:35:26.956Z,1007.46
2016-07-28T05:36:26.942Z,1007.47
2016-07-28T05:37:26.932Z,1007.44
2016-07-28T05:38:26.924Z,1007.45
2016-07-28T05:39:26.918Z,1007.42
2016-07-28T05:40:26.907Z,1007.4
2016-07-28T05:41:26.899Z,1007.38
2016-07-28T05:43:26.883Z,1007.42
2016-07-28T05:44:26.875Z,1007.45
2016-07-28T05:45:26.865Z,1007.47
2016-07-28T05:46:26.858Z,1007.48
2016-07-28T05:47:26.850Z,1007.48
2016-07-28T05:48:26.841Z,1007.49
2016-07-28T05:49:26.833Z,1007.47
2016-07-28T05:51:26.818Z,1007.5
2016-07-28T05:52:26.807Z,1007.49
2016-07-28T05:53:26.799Z,1007.49
2016-07-28T05:54:26.793Z,1007.52
2016-07-28T05:55:26.783Z,1007.53
2016-07-28T05:56:26.775Z,1007.57
2016-07-28T05:57:26.766Z,1007.53
2016-07-28T05:58:26.758Z,1007.54
2016-07-28T05:59:26.749Z,1007.51
2016-07-28T06:00:26.741Z,1007.49
2016-07-28T06:01:26.732Z,1007.52
2016-07-28T06:02:26.725Z,1007.55
2016-07-28T06:03:26.715Z,1007.52
2016-07-28T06:04:26.708Z,1007.54
2016-07-28T06:05:26.699Z,1007.52
2016-07-28T06:06:26.690Z,1007.51
2016-07-28T06:07:26.682Z,1007.47
2016-07-28T06:08:26.675Z,1007.5
2016-07-28T06:09:26.665Z,1007.46
2016-07-28T06:10:26.659Z,1007.49
2016-07-28T06:11:26.649Z,1007.47
2016-07-28T06:12:26.641Z,1007.49
2016-07-28T06:13:26.633Z,1007.5
2016-07-28T06:14:26.624Z,1007.5
2016-07-28T06:15:26.615Z,1007.53
2016-07-28T06:16:26.607Z,1007.48
2016-07-28T06:17:26.600Z,1007.49
2016-07-28T06:18:26.590Z,1007.47
2016-07-28T06:19:26.581Z,1007.46
2016-07-28T06:20:26.574Z,1007.48
2016-07-28T06:21:26.566Z,1007.45
2016-07-28T06:22:26.556Z,1007.43
2016-07-28T06:23:26.548Z,1007.45
2016-07-28T06:24:26.543Z,1007.41
2016-07-28T06:25:26.532Z,1007.4
2016-07-28T06:26:26.524Z,1007.4
2016-07-28T06:27:26.516Z,1007.39
2016-07-28T06:28:26.508Z,1007.39
2016-07-28T06:29:26.500Z,1007.4
2016-07-28T06:30:26.493Z,1007.36
2016-07-28T06:31:26.485Z,1007.36
2016-07-28T06:32:26.475Z,1007.43
2016-07-28T06:33:26.469Z,1007.37
2016-07-28T06:34:26.460Z,1007.44
2016-07-28T06:35:26.453Z,1007.43
2016-07-28T06:36:26.443Z,1007.45
2016-07-28T06:37:26.435Z,1007.43
2016-07-28T06:38:26.430Z,1007.46
2016-07-28T06:39:26.419Z,1007.45
2016-07-28T06:40:26.414Z,1007.43
2016-07-28T06:41:26.405Z,1007.44
2016-07-28T06:42:26.397Z,1007.44
2016-07-28T06:43:26.390Z,1007.43
2016-07-28T06:44:26.382Z,1007.43
2016-07-28T06:45:26.376Z,1007.48
2016-07-28T06:46:26.368Z,1007.44
2016-07-28T06:47:26.360Z,1007.43
2016-07-28T06:48:26.354Z,1007.46
2016-07-28T06:49:26.344Z,1007.46
2016-07-28T06:50:26.336Z,1007.45
2016-07-28T06:51:26.329Z,1007.48
2016-07-28T06:52:26.322Z,1007.48
2016-07-28T06:53:26.314Z,1007.49
2016-07-28T06:54:26.306Z,1007.5
2016-07-28T06:55:26.299Z,1007.44
2016-07-28T06:56:26.290Z,1007.46
2016-07-28T06:57:26.283Z,1007.44
2016-07-28T06:58:26.275Z,1007.4
2016-07-28T06:59:26.270Z,1007.41
2016-07-28T07:00:26.261Z,1007.39
2016-07-28T07:01:26.252Z,1007.42
2016-07-28T07:02:26.250Z,1007.4
2016-07-28T07:03:26.238Z,1007.39
2016-07-28T07:04:26.229Z,1007.4
2016-07-28T07:05:26.221Z,1007.36
2016-07-28T07:06:26.216Z,1007.38
2016-07-28T07:07:26.209Z,1007.34
2016-07-28T07:08:26.197Z,1007.38
2016-07-28T07:09:26.190Z,1007.35
2016-07-28T07:10:26.182Z,1007.4
2016-07-28T07:11:26.176Z,1007.41
2016-07-28T07:12:26.166Z,1007.38
2016-07-28T07:13:26.160Z,1007.39
2016-07-28T07:14:26.153Z,1007.43
2016-07-28T07:15:26.146Z,1007.37
2016-07-28T07:16:26.137Z,1007.38
2016-07-28T07:17:26.132Z,1007.42
2016-07-28T07:18:26.121Z,1007.41
2016-07-28T07:19:26.113Z,1007.43
2016-07-28T07:20:26.106Z,1007.43
2016-07-28T07:21:26.098Z,1007.43
2016-07-28T07:22:26.092Z,1007.41
2016-07-28T07:23:26.089Z,1007.46
2016-07-28T07:24:26.079Z,1007.44
2016-07-28T07:25:26.070Z,1007.44
2016-07-28T07:26:26.062Z,1007.44
2016-07-28T07:27:26.055Z,1007.45
2016-07-28T07:28:26.045Z,1007.47
2016-07-28T07:29:26.038Z,1007.48
2016-07-28T07:30:26.030Z,1007.51
2016-07-28T07:31:26.021Z,1007.49
2016-07-28T07:32:26.014Z,1007.53
2016-07-28T07:33:26.006Z,1007.51
2016-07-28T07:34:25.999Z,1007.53
2016-07-28T07:35:25.993Z,1007.55
2016-07-28T07:36:25.984Z,1007.6
2016-07-28T07:37:25.977Z,1007.55
2016-07-28T07:38:25.970Z,1007.59
2016-07-28T07:39:25.960Z,1007.56
2016-07-28T07:40:25.953Z,1007.57
2016-07-28T07:41:25.945Z,1007.54
2016-07-28T07:42:25.938Z,1007.53
2016-07-28T07:43:25.931Z,1007.51
2016-07-28T07:44:25.925Z,1007.5
2016-07-28T07:45:25.913Z,1007.52
2016-07-28T07:46:25.917Z,1007.5
2016-07-28T07:47:25.897Z,1007.52
2016-07-28T07:48:25.893Z,1007.5
2016-07-28T07:49:25.885Z,1007.5
2016-07-28T07:50:25.876Z,1007.51
2016-07-28T07:51:25.867Z,1007.43
2016-07-28T07:52:25.859Z,1007.47
2016-07-28T07:53:25.852Z,1007.45
2016-07-28T07:54:25.845Z,1007.5
2016-07-28T07:55:25.840Z,1007.46
2016-07-28T07:56:25.829Z,1007.49
2016-07-28T07:57:25.820Z,1007.49
2016-07-28T07:58:25.810Z,1007.47
2016-07-28T07:59:25.806Z,1007.4
2016-07-28T08:00:25.795Z,1007.43
2016-07-28T08:01:25.788Z,1007.45
2016-07-28T08:02:25.781Z,1007.48
2016-07-28T08:03:25.772Z,1007.49
2016-07-28T08:04:25.765Z,1007.46
2016-07-28T08:05:25.757Z,1007.5
2016-07-28T08:06:25.751Z,1007.47
2016-07-28T08:07:25.741Z,1007.49
2016-07-28T08:08:25.734Z,1007.5
2016-07-28T08:09:25.726Z,1007.51
2016-07-28T08:10:25.721Z,1007.44
2016-07-28T08:11:25.710Z,1007.5
2016-07-28T08:12:25.706Z,1007.48
2016-07-28T08:13:25.697Z,1007.49
2016-07-28T08:14:25.688Z,1007.48
2016-07-28T08:15:25.681Z,1007.47
2016-07-28T08:16:25.671Z,1007.49
2016-07-28T08:17:25.667Z,1007.47
2016-07-28T08:18:25.657Z,1007.47
2016-07-28T08:19:25.654Z,1007.48
2016-07-28T08:20:25.642Z,1007.51
2016-07-28T08:21:25.633Z,1007.55
2016-07-28T08:22:25.628Z,1007.5
2016-07-28T08:23:25.619Z,1007.51
2016-07-28T08:24:25.610Z,1007.48
2016-07-28T08:25:25.605Z,1007.51
2016-07-28T08:26:25.597Z,1007.58
2016-07-28T08:27:25.589Z,1007.51
2016-07-28T08:28:25.581Z,1007.51
2016-07-28T08:29:25.572Z,1007.5
2016-07-28T08:30:25.565Z,1007.49
2016-07-28T08:31:25.557Z,1007.46
2016-07-28T08:32:25.548Z,1007.48
2016-07-28T08:33:25.542Z,1007.46
2016-07-28T08:34:25.534Z,1007.52
2016-07-28T08:35:25.539Z,1007.5
2016-07-28T08:36:25.520Z,1007.51
2016-07-28T08:37:25.510Z,1007.51
2016-07-28T08:38:25.504Z,1007.52
2016-07-28T08:39:25.506Z,1007.5
2016-07-28T08:40:25.489Z,1007.47
2016-07-28T08:41:25.481Z,1007.45
2016-07-28T08:42:25.473Z,1007.46
2016-07-28T08:43:25.467Z,1007.41
2016-07-28T08:44:25.459Z,1007.39
2016-07-28T08:45:25.451Z,1007.4
2016-07-28T08:46:25.444Z,1007.4
2016-07-28T08:47:25.435Z,1007.4
2016-07-28T08:48:25.631Z,1007.37
2016-07-28T08:49:25.421Z,1007.33
2016-07-28T08:50:25.414Z,1007.33
2016-07-28T08:51:25.407Z,1007.32
2016-07-28T08:52:25.398Z,1007.33
2016-07-28T08:53:25.392Z,1007.29
2016-07-28T08:54:25.384Z,1007.26
2016-07-28T08:55:25.378Z,1007.31
2016-07-28T08:56:25.372Z,1007.28
2016-07-28T08:57:25.364Z,1007.27
2016-07-28T08:58:25.356Z,1007.33
2016-07-28T08:59:25.349Z,1007.34
2016-07-28T09:00:25.343Z,1007.36
2016-07-28T09:01:25.343Z,1007.39
2016-07-28T09:02:25.329Z,1007.4
2016-07-28T09:03:25.324Z,1007.38
2016-07-28T09:04:25.314Z,1007.39
2016-07-28T09:05:25.308Z,1007.39
2016-07-28T09:06:25.301Z,1007.42
2016-07-28T09:07:25.297Z,1007.41
2016-07-28T09:08:25.288Z,1007.44
2016-07-28T09:09:25.280Z,1007.42
2016-07-28T09:10:25.274Z,1007.45
2016-07-28T09:11:25.267Z,1007.43
2016-07-28T09:12:25.260Z,1007.44
2016-07-28T09:13:25.254Z,1007.49
2016-07-28T09:14:25.246Z,1007.48
2016-07-28T09:15:25.238Z,1007.51
2016-07-28T09:16:25.231Z,1007.52
2016-07-28T09:17:25.225Z,1007.53
2016-07-28T09:18:25.216Z,1007.5
2016-07-28T09:19:25.210Z,1007.46
2016-07-28T09:20:25.202Z,1007.49
2016-07-28T09:21:25.195Z,1007.47
2016-07-28T09:22:25.189Z,1007.47
2016-07-28T09:23:25.179Z,1007.41
2016-07-28T09:24:25.172Z,1007.45
2016-07-28T09:25:25.164Z,1007.4
2016-07-28T09:26:25.158Z,1007.43
2016-07-28T09:27:25.150Z,1007.43
2016-07-28T09:29:25.135Z,1007.43
2016-07-28T09:30:25.128Z,1007.4
2016-07-28T09:31:25.118Z,1007.42
2016-07-28T09:32:25.111Z,1007.43
2016-07-28T09:33:25.108Z,1007.45
2016-07-28T09:34:25.098Z,1007.47
2016-07-28T09:35:25.088Z,1007.47
2016-07-28T09:36:25.082Z,1007.5
2016-07-28T09:37:25.075Z,1007.48
2016-07-28T09:38:25.066Z,1007.44
2016-07-28T09:39:25.058Z,1007.53
2016-07-28T09:40:25.051Z,1007.49
2016-07-28T09:41:25.051Z,1007.49
2016-07-28T09:42:25.036Z,1007.46
2016-07-28T09:44:25.021Z,1007.51
2016-07-28T09:45:25.013Z,1007.49
2016-07-28T09:46:25.006Z,1007.48
2016-07-28T09:47:24.999Z,1007.43
2016-07-28T09:48:24.991Z,1007.46
2016-07-28T09:49:24.986Z,1007.49
2016-07-28T09:50:24.977Z,1007.48
2016-07-28T09:51:24.972Z,1007.5
2016-07-28T09:52:24.963Z,1007.43
2016-07-28T09:53:24.956Z,1007.49
2016-07-28T09:54:24.947Z,1007.47
2016-07-28T09:55:24.939Z,1007.43
2016-07-28T09:56:24.932Z,1007.47
2016-07-28T09:57:24.925Z,1007.5
2016-07-28T09:59:24.912Z,1007.51
2016-07-28T10:00:24.905Z,1007.5
2016-07-28T10:01:24.895Z,1007.47
2016-07-28T10:02:24.889Z,1007.45
2016-07-28T10:03:24.880Z,1007.47
2016-07-28T10:04:24.875Z,1007.46
2016-07-28T10:05:24.866Z,1007.44
2016-07-28T10:06:24.858Z,1007.42
2016-07-28T10:07:24.851Z,1007.4
2016-07-28T10:08:24.844Z,1007.4
2016-07-28T10:09:24.836Z,1007.39
2016-07-28T10:10:24.829Z,1007.35
2016-07-28T10:11:24.821Z,1007.36
2016-07-28T10:12:24.813Z,1007.31
2016-07-28T10:14:24.799Z,1007.31
2016-07-28T10:15:24.791Z,1007.27
2016-07-28T10:16:24.785Z,1007.29
2016-07-28T10:17:24.776Z,1007.27
2016-07-28T10:18:24.768Z,1007.24
2016-07-28T10:19:24.762Z,1007.22
2016-07-28T10:20:24.755Z,1007.22
2016-07-28T10:21:24.748Z,1007.23
2016-07-28T10:22:24.739Z,1007.28
2016-07-28T10:23:24.732Z,1007.27
2016-07-28T10:24:24.724Z,1007.26
2016-07-28T10:25:24.719Z,1007.21
2016-07-28T10:26:24.711Z,1007.24
2016-07-28T10:27:24.702Z,1007.27
2016-07-28T10:29:24.687Z,1007.31
2016-07-28T10:30:24.681Z,1007.28
2016-07-28T10:31:24.673Z,1007.23
2016-07-28T10:32:24.670Z,1007.25
2016-07-28T10:34:24.650Z,1007.24
2016-07-28T10:35:24.643Z,1007.27
2016-07-28T10:36:24.637Z,1007.22
2016-07-28T10:37:24.628Z,1007.19
2016-07-28T10:38:24.622Z,1007.23
2016-07-28T10:39:24.612Z,1007.23
2016-07-28T10:40:24.605Z,1007.23
2016-07-28T10:41:24.599Z,1007.2
2016-07-28T10:42:24.596Z,1007.22
2016-07-28T10:44:24.575Z,1007.26
2016-07-28T10:45:24.567Z,1007.22
2016-07-28T10:46:24.561Z,1007.24
2016-07-28T10:47:24.552Z,1007.23
2016-07-28T10:48:24.746Z,1007.3
2016-07-28T10:49:24.536Z,1007.27
2016-07-28T10:50:24.529Z,1007.24
2016-07-28T10:51:24.521Z,1007.28
2016-07-28T10:52:24.513Z,1007.25
2016-07-28T10:53:24.507Z,1007.26
2016-07-28T10:54:24.499Z,1007.2
2016-07-28T10:55:24.492Z,1007.17
2016-07-28T10:56:24.485Z,1007.2
2016-07-28T10:57:24.477Z,1007.21
2016-07-28T10:58:24.469Z,1007.22
2016-07-28T10:59:24.459Z,1007.18
2016-07-28T11:00:24.454Z,1007.16
2016-07-28T11:01:24.447Z,1007.18
2016-07-28T11:02:24.437Z,1007.21
2016-07-28T11:03:24.430Z,1007.19
2016-07-28T11:04:24.422Z,1007.21
2016-07-28T11:05:24.415Z,1007.25
2016-07-28T11:06:24.407Z,1007.25
2016-07-28T11:07:24.399Z,1007.26
2016-07-28T11:08:24.392Z,1007.25
2016-07-28T11:09:24.384Z,1007.22
2016-07-28T11:10:24.377Z,1007.2
2016-07-28T11:11:24.370Z,1007.21
2016-07-28T11:12:24.363Z,1007.16
2016-07-28T11:14:24.347Z,1007.17
2016-07-28T11:15:24.341Z,1007.22
2016-07-28T11:16:24.334Z,1007.14
2016-07-28T11:17:24.326Z,1007.2
2016-07-28T11:18:24.320Z,1007.14
2016-07-28T11:19:24.313Z,1007.14
2016-07-28T11:20:24.306Z,1007.14
2016-07-28T11:21:24.299Z,1007.16
2016-07-28T11:22:24.292Z,1007.17
2016-07-28T11:23:24.287Z,1007.14
2016-07-28T11:24:24.276Z,1007.14
2016-07-28T11:25:24.270Z,1007.13
2016-07-28T11:26:24.263Z,1007.09
2016-07-28T11:27:24.257Z,1007.09
2016-07-28T11:28:24.249Z,1007.12
2016-07-28T11:29:24.242Z,1007.11
2016-07-28T11:30:24.235Z,1007.14
2016-07-28T11:31:24.230Z,1007.14
2016-07-28T11:32:24.222Z,1007.03
2016-07-28T11:33:24.216Z,1007.05
2016-07-28T11:34:24.212Z,1007.05
2016-07-28T11:35:24.201Z,1007.01
2016-07-28T11:36:24.197Z,1007.01
2016-07-28T11:37:24.189Z,1007
2016-07-28T11:38:24.182Z,1007.05
2016-07-28T11:39:24.177Z,1007.09
2016-07-28T11:40:24.171Z,1007.05
2016-07-28T11:41:24.165Z,1007.04
2016-07-28T11:42:24.160Z,1006.97
2016-07-28T11:43:24.152Z,1007.01
2016-07-28T11:44:24.150Z,1007.05
2016-07-28T11:45:24.142Z,1007
2016-07-28T11:46:24.135Z,1007.02
2016-07-28T11:47:24.130Z,1006.97
2016-07-28T11:48:24.124Z,1007
2016-07-28T11:49:24.120Z,1006.98
2016-07-28T11:50:24.113Z,1006.91
2016-07-28T11:51:24.106Z,1006.92
2016-07-28T11:52:24.102Z,1006.96
2016-07-28T11:53:24.095Z,1006.88
2016-07-28T11:54:24.093Z,1006.95
2016-07-28T11:55:24.085Z,1006.87
2016-07-28T11:56:24.081Z,1006.92
2016-07-28T11:57:24.071Z,1006.89
2016-07-28T11:58:24.067Z,1007
2016-07-28T11:59:24.062Z,1006.9
2016-07-28T12:00:24.057Z,1006.86
2016-07-28T12:01:24.050Z,1006.84
2016-07-28T12:02:24.047Z,1006.88
2016-07-28T12:03:24.039Z,1006.92
2016-07-28T12:04:24.032Z,1006.86
2016-07-28T12:05:24.027Z,1006.85
2016-07-28T12:06:24.022Z,1006.9
2016-07-28T12:07:24.017Z,1006.95
2016-07-28T12:08:24.010Z,1006.86
2016-07-28T12:09:24.004Z,1006.87
2016-07-28T12:10:24.001Z,1006.83
2016-07-28T12:11:23.998Z,1006.85
2016-07-28T12:12:23.993Z,1006.82
2016-07-28T12:13:23.988Z,1006.74
2016-07-28T12:14:23.983Z,1006.84
2016-07-28T12:15:23.979Z,1006.83
2016-07-28T12:16:23.976Z,1006.82
2016-07-28T12:17:23.974Z,1006.8
2016-07-28T12:18:23.970Z,1006.75
2016-07-28T12:19:23.967Z,1006.8
2016-07-28T12:20:23.962Z,1006.75
2016-07-28T12:21:23.959Z,1006.74
2016-07-28T12:22:23.958Z,1006.7
2016-07-28T12:23:23.958Z,1006.73
2016-07-28T12:24:23.949Z,1006.79
2016-07-28T12:25:23.946Z,1006.74
2016-07-28T12:26:25.155Z,1006.75
2016-07-28T12:27:23.937Z,1006.76
2016-07-28T12:28:23.937Z,1006.73
2016-07-28T12:29:23.927Z,1006.77